createdAt,value
2023-03-10T00:01:59.719Z,5.81
2023-03-10T00:05:22.796Z,5.66
2023-03-10T00:08:46.665Z,5.42
2023-03-10T00:12:10.346Z,5.68
2023-03-10T00:15:32.832Z,5.26
2023-03-10T00:18:55.699Z,5.26
2023-03-10T00:22:20.584Z,5.29
2023-03-10T00:25:44.631Z,5.03
2023-03-10T00:29:07.035Z,5.31
2023-03-10T00:32:30.198Z,4.81
2023-03-10T00:36:05.350Z,4.55
2023-03-10T00:39:28.670Z,4.75
2023-03-10T00:42:52.518Z,4.67
2023-03-10T00:46:15.101Z,4.68
2023-03-10T00:49:37.570Z,4.19
2023-03-10T00:53:00.698Z,4.31
2023-03-10T00:56:23.746Z,4.26
2023-03-10T00:59:50.698Z,4.13
2023-03-10T01:03:13.277Z,4.04
2023-03-10T01:06:36.745Z,4.14
2023-03-10T01:10:01.991Z,4.50
2023-03-10T01:13:24.702Z,4.35
2023-03-10T01:16:48.588Z,4.35
2023-03-10T01:20:15.266Z,4.52
2023-03-10T01:23:37.852Z,4.28
2023-03-10T01:27:01.006Z,4.05
2023-03-10T01:30:23.703Z,4.04
2023-03-10T01:33:48.153Z,4.20
2023-03-10T01:37:10.636Z,4.15
2023-03-10T01:40:33.243Z,4.04
2023-03-10T01:43:56.113Z,4.02
2023-03-10T01:47:19.272Z,4.15
2023-03-10T01:50:43.370Z,4.04
2023-03-10T01:54:09.687Z,4.00
2023-03-10T01:57:33.668Z,3.48
2023-03-10T02:00:56.518Z,4.13
2023-03-10T02:04:23.388Z,3.81
2023-03-10T02:07:47.380Z,4.00
2023-03-10T02:11:10.180Z,4.07
2023-03-10T02:14:33.086Z,3.85
2023-03-10T02:17:55.509Z,3.50
2023-03-10T02:21:22.149Z,3.71
2023-03-10T02:24:48.388Z,3.69
2023-03-10T02:28:12.582Z,3.43
2023-03-10T02:31:35.310Z,3.43
2023-03-10T02:34:58.526Z,3.45
2023-03-10T02:38:21.669Z,3.53
2023-03-10T02:41:45.578Z,2.98
2023-03-10T02:45:11.200Z,3.11
2023-03-10T02:48:35.372Z,3.35
2023-03-10T02:51:58.755Z,2.96
2023-03-10T02:55:22.726Z,3.52
2023-03-10T02:58:45.805Z,3.70
2023-03-10T03:02:10.173Z,3.27
2023-03-10T03:05:32.668Z,3.06
2023-03-10T03:08:55.760Z,3.55
2023-03-10T03:12:18.829Z,3.62
2023-03-10T03:15:42.670Z,3.54
2023-03-10T03:19:06.640Z,3.79
2023-03-10T03:22:29.657Z,3.45
2023-03-10T03:25:52.100Z,3.33
2023-03-10T03:29:15.658Z,3.41
2023-03-10T03:32:38.373Z,3.33
2023-03-10T03:36:02.851Z,3.33
2023-03-10T03:39:25.642Z,3.69
2023-03-10T03:42:50.316Z,3.89
2023-03-10T03:46:12.998Z,3.56
2023-03-10T03:49:36.549Z,3.37
2023-03-10T03:53:00.716Z,3.45
2023-03-10T03:56:23.682Z,3.58
2023-03-10T03:59:46.142Z,3.25
2023-03-10T04:03:09.580Z,3.26
2023-03-10T04:06:32.284Z,3.02
2023-03-10T04:09:55.983Z,3.43
2023-03-10T04:13:19.016Z,3.69
2023-03-10T04:16:41.959Z,3.49
2023-03-10T04:20:08.740Z,3.24
2023-03-10T04:23:32.158Z,3.96
2023-03-10T04:26:56.530Z,3.72
2023-03-10T04:30:24.107Z,3.92
2023-03-10T04:33:47.147Z,4.14
2023-03-10T04:37:09.755Z,4.10
2023-03-10T04:40:33.408Z,4.39
2023-03-10T04:43:57.869Z,4.32
2023-03-10T04:47:20.974Z,4.39
2023-03-10T04:50:43.523Z,4.52
2023-03-10T04:54:08.188Z,4.55
2023-03-10T04:57:30.721Z,4.64
2023-03-10T05:01:03.113Z,4.61
2023-03-10T05:04:26.834Z,4.60
2023-03-10T05:07:50.339Z,4.28
2023-03-10T05:11:14.514Z,4.22
2023-03-10T05:14:38.120Z,4.29
2023-03-10T05:18:02.647Z,4.50
2023-03-10T05:21:25.716Z,4.35
2023-03-10T05:24:49.990Z,4.28
2023-03-10T05:28:13.392Z,4.31
2023-03-10T05:31:36.207Z,4.25
2023-03-10T05:35:01.256Z,4.28
2023-03-10T05:38:24.201Z,4.20
2023-03-10T05:41:47.330Z,4.32
2023-03-10T05:45:12.316Z,4.19
2023-03-10T05:48:35.507Z,4.23
2023-03-10T05:52:00.029Z,4.33
2023-03-10T05:55:25.275Z,4.76
2023-03-10T05:58:48.055Z,4.96
2023-03-10T06:02:11.823Z,4.99
2023-03-10T06:05:34.731Z,5.14
2023-03-10T06:08:58.793Z,5.18
2023-03-10T06:12:22.034Z,5.17
2023-03-10T06:15:44.341Z,5.28
2023-03-10T06:19:07.208Z,5.47
2023-03-10T06:22:31.387Z,5.75
2023-03-10T06:25:59.162Z,6.31
2023-03-10T06:29:21.808Z,6.58
2023-03-10T06:32:44.417Z,6.78
2023-03-10T06:36:08.200Z,6.93
2023-03-10T06:39:31.890Z,7.25
2023-03-10T06:42:55.585Z,7.56
2023-03-10T06:46:18.820Z,7.76
2023-03-10T06:49:41.581Z,8.04
2023-03-10T06:53:04.432Z,8.12
2023-03-10T06:56:28.978Z,8.32
2023-03-10T06:59:53.586Z,8.47
2023-03-10T07:03:16.113Z,8.93
2023-03-10T07:06:39.181Z,8.98
2023-03-10T07:10:01.550Z,9.34
2023-03-10T07:13:24.233Z,9.66
2023-03-10T07:16:51.177Z,9.87
2023-03-10T07:20:14.449Z,10.43
2023-03-10T07:23:36.916Z,10.63
2023-03-10T07:27:00.902Z,11.12
2023-03-10T07:30:25.454Z,11.39
2023-03-10T07:33:50.487Z,11.56
2023-03-10T07:37:12.730Z,11.70
2023-03-10T07:40:35.712Z,11.96
2023-03-10T07:43:58.276Z,12.02
2023-03-10T07:47:21.292Z,12.24
2023-03-10T07:50:45.138Z,12.28
2023-03-10T07:54:14.551Z,12.91
2023-03-10T07:57:43.020Z,13.18
2023-03-10T08:01:07.414Z,13.51
2023-03-10T08:04:34.165Z,13.76
2023-03-10T08:07:59.656Z,13.99
2023-03-10T08:11:27.503Z,14.67
2023-03-10T08:14:52.228Z,15.31
2023-03-10T08:18:16.765Z,15.73
2023-03-10T08:21:55.993Z,14.30
2023-03-10T08:25:35.887Z,14.11
2023-03-10T08:28:59.837Z,14.13
2023-03-10T08:32:23.950Z,14.34
2023-03-10T08:35:47.548Z,15.25
2023-03-10T08:39:18.338Z,14.64
2023-03-10T08:42:52.925Z,15.14
2023-03-10T08:46:20.721Z,15.78
2023-03-10T08:49:48.682Z,15.91
2023-03-10T08:53:13.836Z,16.09
2023-03-10T09:01:20.651Z,16.64
2023-03-10T09:08:39.232Z,15.60
2023-03-10T09:12:10.082Z,15.31
2023-03-10T09:15:43.737Z,15.13
2023-03-10T09:19:12.408Z,15.60
2023-03-10T09:22:39.693Z,15.70
2023-03-10T09:26:04.221Z,15.57
2023-03-10T09:29:42.070Z,15.52
2023-03-10T09:33:08.007Z,15.69
2023-03-10T09:36:33.561Z,16.26
2023-03-10T09:39:58.201Z,16.20
2023-03-10T09:43:25.029Z,15.80
2023-03-10T09:46:51.690Z,15.91
2023-03-10T09:50:24.223Z,16.35
2023-03-10T09:54:03.929Z,16.01
2023-03-10T09:57:27.569Z,16.11
2023-03-10T10:00:51.325Z,16.54
2023-03-10T10:04:17.410Z,16.48
2023-03-10T10:07:54.505Z,16.99
2023-03-10T10:11:39.020Z,16.55
2023-03-10T10:15:08.007Z,16.66
2023-03-10T10:18:33.550Z,16.84
2023-03-10T10:22:00.268Z,16.63
2023-03-10T10:25:23.942Z,17.61
2023-03-10T10:28:51.034Z,17.08
2023-03-10T10:32:14.959Z,17.84
2023-03-10T10:35:39.564Z,18.33
2023-03-10T10:39:03.257Z,19.01
2023-03-10T10:42:27.959Z,18.73
2023-03-10T10:46:08.637Z,18.43
2023-03-10T10:49:34.501Z,18.84
2023-03-10T10:53:17.965Z,19.05
2023-03-10T10:56:43.790Z,18.59
2023-03-10T11:00:25.742Z,18.33
2023-03-10T11:03:51.358Z,18.56
2023-03-10T11:07:18.095Z,17.87
2023-03-10T11:10:41.673Z,17.69
2023-03-10T11:14:12.457Z,18.40
2023-03-10T11:17:40.355Z,19.37
2023-03-10T11:21:12.778Z,19.78
2023-03-10T11:24:39.555Z,19.76
2023-03-10T11:28:21.190Z,19.71
2023-03-10T11:31:50.877Z,19.08
2023-03-10T11:35:24.019Z,18.20
2023-03-10T11:38:53.250Z,17.94
2023-03-10T11:42:25.221Z,17.49
2023-03-10T11:46:02.467Z,17.43
2023-03-10T11:49:27.894Z,17.05
2023-03-10T11:52:52.132Z,17.30
2023-03-10T11:56:17.854Z,17.40
2023-03-10T11:59:48.084Z,17.39
2023-03-10T12:03:18.664Z,17.68
2023-03-10T12:06:45.742Z,17.80
2023-03-10T12:10:15.867Z,17.67
2023-03-10T12:13:44.051Z,18.16
2023-03-10T12:17:07.518Z,18.58
2023-03-10T12:20:31.628Z,19.08
2023-03-10T12:23:55.583Z,20.02
2023-03-10T12:27:19.481Z,20.62
2023-03-10T12:30:47.648Z,20.71
2023-03-10T12:34:15.534Z,21.52
2023-03-10T12:37:38.870Z,20.17
2023-03-10T12:41:02.973Z,20.74
2023-03-10T12:44:37.499Z,21.02
2023-03-10T12:48:03.848Z,21.05
2023-03-10T12:51:26.891Z,19.81
2023-03-10T12:54:54.066Z,20.61
2023-03-10T12:58:18.651Z,21.09
2023-03-10T13:01:55.147Z,21.23
2023-03-10T13:05:24.840Z,19.58
2023-03-10T13:08:49.029Z,19.17
2023-03-10T13:12:18.376Z,19.58
2023-03-10T13:15:44.818Z,19.71
2023-03-10T13:19:41.162Z,20.35
2023-03-10T13:23:28.189Z,20.05
2023-03-10T13:31:34.212Z,19.54
2023-03-10T13:34:58.100Z,20.46
2023-03-10T13:38:24.874Z,21.31
2023-03-10T13:41:49.582Z,20.91
2023-03-10T13:45:23.861Z,19.90
2023-03-10T13:49:15.140Z,18.92
2023-03-10T13:52:39.909Z,19.12
2023-03-10T13:56:18.494Z,19.48
2023-03-10T13:59:46.984Z,19.15
2023-03-10T14:03:17.649Z,18.59
2023-03-10T14:06:42.450Z,19.15
2023-03-10T14:10:21.444Z,18.53
2023-03-10T14:13:54.980Z,19.18
2023-03-10T14:17:39.505Z,18.43
2023-03-10T14:21:25.035Z,18.19
2023-03-10T14:24:48.978Z,19.29
2023-03-10T14:31:41.646Z,19.81
2023-03-10T14:35:11.051Z,18.85
2023-03-10T14:38:35.056Z,18.02
2023-03-10T14:46:58.194Z,17.90
2023-03-10T14:50:24.474Z,18.01
2023-03-10T14:53:50.835Z,17.86
2023-03-10T14:57:15.725Z,17.38
2023-03-10T15:00:39.701Z,17.06
2023-03-10T15:04:03.961Z,17.02
2023-03-10T15:07:28.755Z,16.43
2023-03-10T15:10:52.739Z,16.52
2023-03-10T15:14:18.154Z,16.23
2023-03-10T15:17:45.458Z,16.15
2023-03-10T15:21:10.891Z,15.91
2023-03-10T15:24:37.491Z,15.84
2023-03-10T15:28:02.009Z,15.81
2023-03-10T15:31:26.635Z,15.67
2023-03-10T15:34:51.299Z,15.46
2023-03-10T15:38:17.211Z,15.75
2023-03-10T15:41:43.230Z,15.54
2023-03-10T15:45:09.449Z,15.78
2023-03-10T15:48:34.863Z,15.95
2023-03-10T15:51:59.517Z,15.65
2023-03-10T15:55:24.111Z,15.69
2023-03-10T15:58:50.545Z,15.55
2023-03-10T16:02:16.494Z,15.48
2023-03-10T16:05:50.394Z,15.39
2023-03-10T16:09:17.720Z,15.32
2023-03-10T16:12:43.994Z,15.14
2023-03-10T16:16:11.367Z,15.09
2023-03-10T16:19:39.121Z,14.97
2023-03-10T16:23:04.199Z,14.94
2023-03-10T16:26:29.953Z,14.74
2023-03-10T16:29:53.720Z,14.64
2023-03-10T16:33:20.073Z,14.58
2023-03-10T16:36:44.568Z,14.29
2023-03-10T16:40:10.595Z,14.16
2023-03-10T16:43:37.948Z,14.19
2023-03-10T16:47:05.438Z,13.97
2023-03-10T16:50:34.177Z,13.97
2023-03-10T16:54:00.240Z,13.94
2023-03-10T16:57:30.572Z,13.94
2023-03-10T17:00:56.384Z,13.92
2023-03-10T17:04:28.463Z,13.88
2023-03-10T17:07:56.346Z,14.04
2023-03-10T17:11:26.677Z,13.96
2023-03-10T17:14:51.874Z,14.05
2023-03-10T17:18:27.128Z,13.92
2023-03-10T17:21:53.773Z,13.83
2023-03-10T17:25:22.573Z,13.79
2023-03-10T17:28:51.672Z,13.71
2023-03-10T17:32:18.038Z,13.43
2023-03-10T17:35:42.542Z,13.55
2023-03-10T17:39:08.481Z,13.51
2023-03-10T17:42:36.182Z,13.49
2023-03-10T17:46:03.932Z,13.40
2023-03-10T17:49:30.429Z,13.34
2023-03-10T17:52:58.227Z,13.51
2023-03-10T17:56:24.228Z,13.40
2023-03-10T17:59:52.079Z,12.93
2023-03-10T18:03:23.605Z,12.54
2023-03-10T18:06:49.716Z,12.55
2023-03-10T18:10:18.155Z,12.33
2023-03-10T18:18:06.723Z,12.30
2023-03-10T18:21:34.088Z,12.50
2023-03-10T18:25:03.424Z,12.30
2023-03-10T18:28:34.221Z,12.16
2023-03-10T18:32:04.115Z,12.26
2023-03-10T18:35:34.110Z,12.40
2023-03-10T18:39:08.275Z,12.05
2023-03-10T18:42:35.876Z,11.72
2023-03-10T18:46:05.172Z,11.54
2023-03-10T18:49:33.360Z,11.48
2023-03-10T18:53:03.175Z,11.48
2023-03-10T18:56:32.590Z,11.40
2023-03-10T19:00:15.664Z,11.40
2023-03-10T19:03:49.328Z,11.44
2023-03-10T19:07:15.647Z,11.53
2023-03-10T19:10:47.053Z,11.54
2023-03-10T19:14:15.026Z,11.43
2023-03-10T19:17:41.349Z,11.60
2023-03-10T19:21:06.554Z,11.49
2023-03-10T19:24:40.536Z,11.61
2023-03-10T19:28:09.764Z,11.80
2023-03-10T19:31:35.566Z,11.92
2023-03-10T19:35:03.279Z,11.78
2023-03-10T19:38:31.818Z,11.79
2023-03-10T19:42:02.503Z,11.77
2023-03-10T19:49:09.898Z,11.56
2023-03-10T19:52:40.117Z,11.37
2023-03-10T19:56:12.430Z,11.31
2023-03-10T19:59:43.809Z,11.13
2023-03-10T20:03:13.511Z,11.23
2023-03-10T20:06:45.706Z,11.31
2023-03-10T20:10:22.797Z,11.28
2023-03-10T20:13:52.552Z,11.08
2023-03-10T20:17:23.582Z,11.22
2023-03-10T20:20:51.606Z,11.14
2023-03-10T20:24:17.197Z,11.16
2023-03-10T20:27:50.278Z,11.17
2023-03-10T20:31:19.288Z,11.03
2023-03-10T20:34:44.865Z,11.27
2023-03-10T20:38:14.245Z,11.19
2023-03-10T20:41:45.919Z,11.01
2023-03-10T20:45:24.976Z,11.22
2023-03-10T20:48:51.765Z,11.26
2023-03-10T20:52:20.364Z,10.87
2023-03-10T20:55:47.845Z,10.85
2023-03-10T20:59:13.901Z,10.72
2023-03-10T21:02:39.712Z,10.98
2023-03-10T21:06:04.739Z,10.74
2023-03-10T21:09:34.971Z,10.62
2023-03-10T21:13:02.122Z,10.66
2023-03-10T21:16:26.118Z,10.44
2023-03-10T21:19:53.166Z,10.23
2023-03-10T21:23:18.208Z,10.29
2023-03-10T21:26:43.068Z,10.21
2023-03-10T21:30:11.294Z,10.36
2023-03-10T21:33:35.488Z,10.46
2023-03-10T21:37:00.293Z,10.21
2023-03-10T21:40:25.004Z,10.36
2023-03-10T21:43:50.769Z,10.25
2023-03-10T21:47:16.865Z,10.43
2023-03-10T21:50:41.088Z,10.40
2023-03-10T21:54:05.329Z,10.36
2023-03-10T21:57:29.261Z,10.04
2023-03-10T22:00:56.073Z,10.35
2023-03-10T22:04:22.138Z,10.27
2023-03-10T22:07:46.132Z,10.44
2023-03-10T22:11:11.300Z,10.45
2023-03-10T22:14:35.083Z,10.46
2023-03-10T22:18:03.118Z,10.36
2023-03-10T22:21:28.624Z,10.18
2023-03-10T22:24:54.115Z,9.88
2023-03-10T22:28:17.898Z,9.99
2023-03-10T22:31:41.643Z,9.97
2023-03-10T22:35:10.196Z,10.08
2023-03-10T22:38:36.191Z,9.99
2023-03-10T22:42:00.321Z,9.92
2023-03-10T22:45:25.589Z,10.21
2023-03-10T22:48:49.420Z,9.90
2023-03-10T22:52:13.680Z,9.86
2023-03-10T22:55:44.058Z,9.96
2023-03-10T22:59:08.983Z,9.66
2023-03-10T23:02:33.153Z,9.94
2023-03-10T23:06:14.492Z,9.78
2023-03-10T23:09:39.444Z,9.87
2023-03-10T23:13:09.365Z,9.76
2023-03-10T23:16:36.726Z,9.92
2023-03-10T23:20:02.247Z,10.20
2023-03-10T23:23:26.623Z,10.11
2023-03-10T23:26:50.861Z,10.24
2023-03-10T23:30:16.575Z,10.25
2023-03-10T23:33:41.385Z,10.10
2023-03-10T23:37:05.987Z,10.11
2023-03-10T23:40:30.804Z,10.11
2023-03-10T23:43:54.486Z,10.03
2023-03-10T23:47:20.276Z,9.86
2023-03-10T23:50:44.366Z,9.77
2023-03-10T23:54:08.951Z,9.60
2023-03-10T23:57:33.633Z,9.62
